sensor_id;sensor_type;location;lat;lon;timestamp;temperature;humidity
8178;DHT22;4130;48.740;9.132;2023-12-20T00:01:41;5.90;99.90
8178;DHT22;4130;48.740;9.132;2023-12-20T00:04:10;5.60;99.90
8178;DHT22;4130;48.740;9.132;2023-12-20T00:06:36;5.60;99.90
8178;DHT22;4130;48.740;9.132;2023-12-20T00:09:03;5.60;99.90
8178;DHT22;4130;48.740;9.132;2023-12-20T00:11:30;5.70;99.90
8178;DHT22;4130;48.740;9.132;2023-12-20T00:13:57;5.60;99.90
8178;DHT22;4130;48.740;9.132;2023-12-20T00:16:24;6.40;99.90
8178;DHT22;4130;48.740;9.132;2023-12-20T00:18:51;7.20;99.90
8178;DHT22;4130;48.740;9.132;2023-12-20T00:21:19;6.10;99.90
8178;DHT22;4130;48.740;9.132;2023-12-20T00:23:46;5.70;99.90
8178;DHT22;4130;48.740;9.132;2023-12-20T00:26:12;6.40;99.90
8178;DHT22;4130;48.740;9.132;2023-12-20T00:28:39;5.80;99.90
8178;DHT22;4130;48.740;9.132;2023-12-20T00:31:06;5.60;99.90
8178;DHT22;4130;48.740;9.132;2023-12-20T00:33:33;5.60;99.90
8178;DHT22;4130;48.740;9.132;2023-12-20T00:36:00;5.90;99.90
8178;DHT22;4130;48.740;9.132;2023-12-20T00:38:42;5.50;99.90
8178;DHT22;4130;48.740;9.132;2023-12-20T00:41:09;6.40;99.90
8178;DHT22;4130;48.740;9.132;2023-12-20T00:43:36;5.50;99.90
8178;DHT22;4130;48.740;9.132;2023-12-20T00:46:05;5.40;99.90
8178;DHT22;4130;48.740;9.132;2023-12-20T00:48:35;5.20;99.90
8178;DHT22;4130;48.740;9.132;2023-12-20T00:51:02;6.20;99.90
8178;DHT22;4130;48.740;9.132;2023-12-20T00:53:29;5.30;99.90
8178;DHT22;4130;48.740;9.132;2023-12-20T00:56:00;5.70;99.90
8178;DHT22;4130;48.740;9.132;2023-12-20T00:58:27;5.10;99.90
8178;DHT22;4130;48.740;9.132;2023-12-20T01:00:54;5.20;99.90
8178;DHT22;4130;48.740;9.132;2023-12-20T01:03:21;5.40;99.90
8178;DHT22;4130;48.740;9.132;2023-12-20T01:05:54;5.20;99.90
8178;DHT22;4130;48.740;9.132;2023-12-20T01:08:21;5.20;99.90
8178;DHT22;4130;48.740;9.132;2023-12-20T01:10:48;5.30;99.90
8178;DHT22;4130;48.740;9.132;2023-12-20T01:13:16;5.20;99.90
8178;DHT22;4130;48.740;9.132;2023-12-20T01:15:43;5.40;99.90
8178;DHT22;4130;48.740;9.132;2023-12-20T01:18:10;5.20;99.90
8178;DHT22;4130;48.740;9.132;2023-12-20T01:20:37;5.20;99.90
8178;DHT22;4130;48.740;9.132;2023-12-20T01:23:15;5.20;99.90
8178;DHT22;4130;48.740;9.132;2023-12-20T01:25:42;5.50;99.90
8178;DHT22;4130;48.740;9.132;2023-12-20T01:28:10;5.20;99.90
8178;DHT22;4130;48.740;9.132;2023-12-20T01:30:38;5.60;99.90
8178;DHT22;4130;48.740;9.132;2023-12-20T01:33:05;5.10;99.90
8178;DHT22;4130;48.740;9.132;2023-12-20T01:35:32;5.10;99.90
8178;DHT22;4130;48.740;9.132;2023-12-20T01:37:59;5.10;99.90
8178;DHT22;4130;48.740;9.132;2023-12-20T01:40:26;5.40;99.90
8178;DHT22;4130;48.740;9.132;2023-12-20T01:42:59;5.10;99.90
8178;DHT22;4130;48.740;9.132;2023-12-20T01:45:26;5.10;99.90
8178;DHT22;4130;48.740;9.132;2023-12-20T01:47:56;6.10;99.90
8178;DHT22;4130;48.740;9.132;2023-12-20T01:50:23;6.10;99.90
8178;DHT22;4130;48.740;9.132;2023-12-20T01:52:51;5.10;99.90
8178;DHT22;4130;48.740;9.132;2023-12-20T01:55:18;5.20;99.90
8178;DHT22;4130;48.740;9.132;2023-12-20T01:57:46;5.40;99.90
8178;DHT22;4130;48.740;9.132;2023-12-20T02:00:16;5.00;99.90
8178;DHT22;4130;48.740;9.132;2023-12-20T02:02:46;6.60;99.90
8178;DHT22;4130;48.740;9.132;2023-12-20T02:05:16;5.10;99.90
8178;DHT22;4130;48.740;9.132;2023-12-20T02:07:44;5.00;99.90
8178;DHT22;4130;48.740;9.132;2023-12-20T02:10:13;5.90;99.90
8178;DHT22;4130;48.740;9.132;2023-12-20T02:12:40;5.20;99.90
8178;DHT22;4130;48.740;9.132;2023-12-20T02:15:07;5.20;99.90
8178;DHT22;4130;48.740;9.132;2023-12-20T02:17:38;5.60;99.90
8178;DHT22;4130;48.740;9.132;2023-12-20T02:20:25;5.50;99.90
8178;DHT22;4130;48.740;9.132;2023-12-20T02:22:54;5.20;99.90
8178;DHT22;4130;48.740;9.132;2023-12-20T02:25:22;6.40;99.90
8178;DHT22;4130;48.740;9.132;2023-12-20T02:27:49;5.20;99.90
8178;DHT22;4130;48.740;9.132;2023-12-20T02:30:18;5.20;99.90
8178;DHT22;4130;48.740;9.132;2023-12-20T02:32:45;6.50;99.90
8178;DHT22;4130;48.740;9.132;2023-12-20T02:35:12;5.20;99.90
8178;DHT22;4130;48.740;9.132;2023-12-20T02:37:38;5.60;99.90
8178;DHT22;4130;48.740;9.132;2023-12-20T02:40:07;6.40;99.90
8178;DHT22;4130;48.740;9.132;2023-12-20T02:42:34;5.20;99.90
8178;DHT22;4130;48.740;9.132;2023-12-20T02:45:01;5.30;99.90
8178;DHT22;4130;48.740;9.132;2023-12-20T02:47:28;5.20;99.90
8178;DHT22;4130;48.740;9.132;2023-12-20T02:49:56;5.20;99.90
8178;DHT22;4130;48.740;9.132;2023-12-20T02:52:23;5.20;99.90
8178;DHT22;4130;48.740;9.132;2023-12-20T02:55:01;5.10;99.90
8178;DHT22;4130;48.740;9.132;2023-12-20T02:57:29;5.10;99.90
8178;DHT22;4130;48.740;9.132;2023-12-20T02:59:57;5.30;99.90
8178;DHT22;4130;48.740;9.132;2023-12-20T03:02:24;5.10;99.90
8178;DHT22;4130;48.740;9.132;2023-12-20T03:04:51;5.10;99.90
8178;DHT22;4130;48.740;9.132;2023-12-20T03:07:18;5.10;99.90
8178;DHT22;4130;48.740;9.132;2023-12-20T03:10:00;5.00;99.90
8178;DHT22;4130;48.740;9.132;2023-12-20T03:12:27;5.00;99.90
8178;DHT22;4130;48.740;9.132;2023-12-20T03:14:55;5.70;99.90
8178;DHT22;4130;48.740;9.132;2023-12-20T03:17:22;5.10;99.90
8178;DHT22;4130;48.740;9.132;2023-12-20T03:19:48;5.10;99.90
8178;DHT22;4130;48.740;9.132;2023-12-20T03:22:15;6.30;99.90
8178;DHT22;4130;48.740;9.132;2023-12-20T03:24:45;5.10;99.90
8178;DHT22;4130;48.740;9.132;2023-12-20T03:27:15;5.50;99.90
8178;DHT22;4130;48.740;9.132;2023-12-20T03:29:42;5.00;99.90
8178;DHT22;4130;48.740;9.132;2023-12-20T03:32:10;5.40;99.90
8178;DHT22;4130;48.740;9.132;2023-12-20T03:34:37;6.50;99.90
8178;DHT22;4130;48.740;9.132;2023-12-20T03:37:03;5.00;99.90
8178;DHT22;4130;48.740;9.132;2023-12-20T03:39:30;5.00;99.90
8178;DHT22;4130;48.740;9.132;2023-12-20T03:41:59;5.00;99.90
8178;DHT22;4130;48.740;9.132;2023-12-20T03:44:26;5.10;99.90
8178;DHT22;4130;48.740;9.132;2023-12-20T03:46:53;5.10;99.90
8178;DHT22;4130;48.740;9.132;2023-12-20T03:49:21;5.10;99.90
8178;DHT22;4130;48.740;9.132;2023-12-20T03:51:47;6.30;99.90
8178;DHT22;4130;48.740;9.132;2023-12-20T03:54:14;5.10;99.90
8178;DHT22;4130;48.740;9.132;2023-12-20T03:56:41;5.00;99.90
8178;DHT22;4130;48.740;9.132;2023-12-20T03:59:08;5.00;99.90
8178;DHT22;4130;48.740;9.132;2023-12-20T04:01:35;5.00;99.90
8178;DHT22;4130;48.740;9.132;2023-12-20T04:04:01;5.00;99.90
8178;DHT22;4130;48.740;9.132;2023-12-20T04:06:30;4.90;99.90
8178;DHT22;4130;48.740;9.132;2023-12-20T04:08:57;4.90;99.90
8178;DHT22;4130;48.740;9.132;2023-12-20T04:11:24;4.90;99.90
8178;DHT22;4130;48.740;9.132;2023-12-20T04:13:51;6.30;99.90
8178;DHT22;4130;48.740;9.132;2023-12-20T04:16:18;4.90;99.90
8178;DHT22;4130;48.740;9.132;2023-12-20T04:18:45;4.80;99.90
8178;DHT22;4130;48.740;9.132;2023-12-20T04:21:11;4.80;99.90
8178;DHT22;4130;48.740;9.132;2023-12-20T04:23:40;4.80;99.90
8178;DHT22;4130;48.740;9.132;2023-12-20T04:26:07;3.60;99.90
8178;DHT22;4130;48.740;9.132;2023-12-20T04:28:40;4.70;99.90
8178;DHT22;4130;48.740;9.132;2023-12-20T04:31:07;4.70;99.90
8178;DHT22;4130;48.740;9.132;2023-12-20T04:33:34;4.70;99.90
8178;DHT22;4130;48.740;9.132;2023-12-20T04:36:01;4.70;99.90
8178;DHT22;4130;48.740;9.132;2023-12-20T04:38:27;5.20;99.90
8178;DHT22;4130;48.740;9.132;2023-12-20T04:40:56;5.40;99.90
8178;DHT22;4130;48.740;9.132;2023-12-20T04:43:23;5.70;99.90
8178;DHT22;4130;48.740;9.132;2023-12-20T04:45:52;4.70;99.90
8178;DHT22;4130;48.740;9.132;2023-12-20T04:48:19;4.70;99.90
8178;DHT22;4130;48.740;9.132;2023-12-20T04:50:47;4.70;99.90
8178;DHT22;4130;48.740;9.132;2023-12-20T04:53:14;4.60;99.90
8178;DHT22;4130;48.740;9.132;2023-12-20T04:55:41;4.70;99.90
8178;DHT22;4130;48.740;9.132;2023-12-20T04:58:09;4.70;99.90
8178;DHT22;4130;48.740;9.132;2023-12-20T05:00:37;5.30;99.90
8178;DHT22;4130;48.740;9.132;2023-12-20T05:03:36;4.70;99.90
8178;DHT22;4130;48.740;9.132;2023-12-20T05:06:03;4.70;99.90
8178;DHT22;4130;48.740;9.132;2023-12-20T05:08:30;4.70;99.90
8178;DHT22;4130;48.740;9.132;2023-12-20T05:10:58;4.70;99.90
8178;DHT22;4130;48.740;9.132;2023-12-20T05:13:27;4.70;99.90
8178;DHT22;4130;48.740;9.132;2023-12-20T05:15:55;5.30;99.90
8178;DHT22;4130;48.740;9.132;2023-12-20T05:18:21;5.90;99.90
8178;DHT22;4130;48.740;9.132;2023-12-20T05:20:50;5.30;99.90
8178;DHT22;4130;48.740;9.132;2023-12-20T05:23:26;4.70;99.90
8178;DHT22;4130;48.740;9.132;2023-12-20T05:25:53;4.70;99.90
8178;DHT22;4130;48.740;9.132;2023-12-20T05:28:21;4.70;99.90
8178;DHT22;4130;48.740;9.132;2023-12-20T05:30:56;4.60;99.90
8178;DHT22;4130;48.740;9.132;2023-12-20T05:33:22;4.60;99.90
8178;DHT22;4130;48.740;9.132;2023-12-20T05:35:53;4.80;99.90
8178;DHT22;4130;48.740;9.132;2023-12-20T05:38:21;4.60;99.90
8178;DHT22;4130;48.740;9.132;2023-12-20T05:40:49;5.70;99.90
8178;DHT22;4130;48.740;9.132;2023-12-20T05:43:17;4.60;99.90
8178;DHT22;4130;48.740;9.132;2023-12-20T05:45:45;4.60;99.90
8178;DHT22;4130;48.740;9.132;2023-12-20T05:48:17;5.00;99.90
8178;DHT22;4130;48.740;9.132;2023-12-20T05:50:44;4.60;99.90
8178;DHT22;4130;48.740;9.132;2023-12-20T05:53:11;5.30;99.90
8178;DHT22;4130;48.740;9.132;2023-12-20T05:55:49;5.50;99.90
8178;DHT22;4130;48.740;9.132;2023-12-20T05:58:16;5.00;99.90
8178;DHT22;4130;48.740;9.132;2023-12-20T06:00:43;5.50;99.90
8178;DHT22;4130;48.740;9.132;2023-12-20T06:03:13;4.70;99.90
8178;DHT22;4130;48.740;9.132;2023-12-20T06:05:43;4.60;99.90
8178;DHT22;4130;48.740;9.132;2023-12-20T06:08:10;4.70;99.90
8178;DHT22;4130;48.740;9.132;2023-12-20T06:10:41;5.70;99.90
8178;DHT22;4130;48.740;9.132;2023-12-20T06:13:08;5.60;99.90
8178;DHT22;4130;48.740;9.132;2023-12-20T06:15:35;4.70;99.90
8178;DHT22;4130;48.740;9.132;2023-12-20T06:18:02;4.70;99.90
8178;DHT22;4130;48.740;9.132;2023-12-20T06:20:29;4.60;99.90
8178;DHT22;4130;48.740;9.132;2023-12-20T06:22:57;4.70;99.90
8178;DHT22;4130;48.740;9.132;2023-12-20T06:25:24;5.30;99.90
8178;DHT22;4130;48.740;9.132;2023-12-20T06:27:59;4.70;99.90
8178;DHT22;4130;48.740;9.132;2023-12-20T06:30:27;4.60;99.90
8178;DHT22;4130;48.740;9.132;2023-12-20T06:32:54;4.80;99.90
8178;DHT22;4130;48.740;9.132;2023-12-20T06:35:23;4.80;99.90
8178;DHT22;4130;48.740;9.132;2023-12-20T06:37:49;4.80;99.90
8178;DHT22;4130;48.740;9.132;2023-12-20T06:40:19;4.80;99.90
8178;DHT22;4130;48.740;9.132;2023-12-20T06:42:46;4.80;99.90
8178;DHT22;4130;48.740;9.132;2023-12-20T06:45:12;5.50;99.90
8178;DHT22;4130;48.740;9.132;2023-12-20T06:47:41;4.80;99.90
8178;DHT22;4130;48.740;9.132;2023-12-20T06:50:08;4.80;99.90
8178;DHT22;4130;48.740;9.132;2023-12-20T06:52:37;4.80;99.90
8178;DHT22;4130;48.740;9.132;2023-12-20T06:55:06;5.30;99.90
8178;DHT22;4130;48.740;9.132;2023-12-20T06:57:35;4.80;99.90
8178;DHT22;4130;48.740;9.132;2023-12-20T07:00:02;6.20;99.90
8178;DHT22;4130;48.740;9.132;2023-12-20T07:02:29;4.90;99.90
8178;DHT22;4130;48.740;9.132;2023-12-20T07:04:56;5.00;99.90
8178;DHT22;4130;48.740;9.132;2023-12-20T07:07:23;4.90;99.90
8178;DHT22;4130;48.740;9.132;2023-12-20T07:09:50;4.90;99.90
8178;DHT22;4130;48.740;9.132;2023-12-20T07:12:17;4.90;99.90
8178;DHT22;4130;48.740;9.132;2023-12-20T07:14:46;5.30;99.90
8178;DHT22;4130;48.740;9.132;2023-12-20T07:17:13;5.30;99.90
8178;DHT22;4130;48.740;9.132;2023-12-20T07:19:41;5.40;99.90
8178;DHT22;4130;48.740;9.132;2023-12-20T07:22:08;5.00;99.90
8178;DHT22;4130;48.740;9.132;2023-12-20T07:24:35;5.00;99.90
8178;DHT22;4130;48.740;9.132;2023-12-20T07:27:03;5.00;99.90
8178;DHT22;4130;48.740;9.132;2023-12-20T07:29:29;5.00;99.90
8178;DHT22;4130;48.740;9.132;2023-12-20T07:31:58;5.00;99.90
8178;DHT22;4130;48.740;9.132;2023-12-20T07:34:29;5.10;99.90
8178;DHT22;4130;48.740;9.132;2023-12-20T07:36:56;5.00;99.90
8178;DHT22;4130;48.740;9.132;2023-12-20T07:39:22;5.80;99.90
8178;DHT22;4130;48.740;9.132;2023-12-20T07:41:49;5.10;99.90
8178;DHT22;4130;48.740;9.132;2023-12-20T07:44:16;4.90;99.90
8178;DHT22;4130;48.740;9.132;2023-12-20T07:46:43;4.80;99.90
8178;DHT22;4130;48.740;9.132;2023-12-20T07:49:11;6.10;99.90
8178;DHT22;4130;48.740;9.132;2023-12-20T07:51:39;4.80;99.90
8178;DHT22;4130;48.740;9.132;2023-12-20T07:54:06;4.70;99.90
8178;DHT22;4130;48.740;9.132;2023-12-20T07:56:33;4.60;99.90
8178;DHT22;4130;48.740;9.132;2023-12-20T07:59:00;4.60;99.90
8178;DHT22;4130;48.740;9.132;2023-12-20T08:01:27;4.60;99.90
8178;DHT22;4130;48.740;9.132;2023-12-20T08:03:54;5.90;99.90
8178;DHT22;4130;48.740;9.132;2023-12-20T08:06:22;4.60;99.90
8178;DHT22;4130;48.740;9.132;2023-12-20T08:08:50;4.60;99.90
8178;DHT22;4130;48.740;9.132;2023-12-20T08:11:18;4.50;99.90
8178;DHT22;4130;48.740;9.132;2023-12-20T08:13:44;4.60;99.90
8178;DHT22;4130;48.740;9.132;2023-12-20T08:16:11;6.10;99.90
8178;DHT22;4130;48.740;9.132;2023-12-20T08:18:39;4.60;99.90
8178;DHT22;4130;48.740;9.132;2023-12-20T08:21:06;5.20;99.90
8178;DHT22;4130;48.740;9.132;2023-12-20T08:23:35;4.60;99.90
8178;DHT22;4130;48.740;9.132;2023-12-20T08:26:04;4.50;99.90
8178;DHT22;4130;48.740;9.132;2023-12-20T08:28:31;4.50;99.90
8178;DHT22;4130;48.740;9.132;2023-12-20T08:30:58;4.50;99.90
8178;DHT22;4130;48.740;9.132;2023-12-20T08:33:25;4.40;99.90
8178;DHT22;4130;48.740;9.132;2023-12-20T08:35:52;4.60;99.90
8178;DHT22;4130;48.740;9.132;2023-12-20T08:38:18;4.50;99.90
8178;DHT22;4130;48.740;9.132;2023-12-20T08:40:47;4.50;99.90
8178;DHT22;4130;48.740;9.132;2023-12-20T08:43:14;6.00;99.90
8178;DHT22;4130;48.740;9.132;2023-12-20T08:45:41;4.50;99.90
8178;DHT22;4130;48.740;9.132;2023-12-20T08:48:08;4.50;99.90
8178;DHT22;4130;48.740;9.132;2023-12-20T08:50:35;5.90;99.90
8178;DHT22;4130;48.740;9.132;2023-12-20T08:53:02;5.30;99.90
8178;DHT22;4130;48.740;9.132;2023-12-20T08:55:29;4.40;99.90
8178;DHT22;4130;48.740;9.132;2023-12-20T08:57:59;4.90;99.90
8178;DHT22;4130;48.740;9.132;2023-12-20T09:00:25;4.20;99.90
8178;DHT22;4130;48.740;9.132;2023-12-20T09:02:53;4.10;99.90
8178;DHT22;4130;48.740;9.132;2023-12-20T09:05:20;4.10;99.90
8178;DHT22;4130;48.740;9.132;2023-12-20T09:07:47;4.30;99.90
8178;DHT22;4130;48.740;9.132;2023-12-20T09:10:14;5.30;99.90
8178;DHT22;4130;48.740;9.132;2023-12-20T09:12:41;4.70;99.90
8178;DHT22;4130;48.740;9.132;2023-12-20T09:15:09;4.30;99.90
8178;DHT22;4130;48.740;9.132;2023-12-20T09:17:36;4.80;99.90
8178;DHT22;4130;48.740;9.132;2023-12-20T09:22:34;3.90;99.90
8178;DHT22;4130;48.740;9.132;2023-12-20T09:25:04;3.90;99.90
8178;DHT22;4130;48.740;9.132;2023-12-20T09:27:31;4.00;99.90
8178;DHT22;4130;48.740;9.132;2023-12-20T09:29:58;4.00;99.90
8178;DHT22;4130;48.740;9.132;2023-12-20T09:32:26;4.00;99.90
8178;DHT22;4130;48.740;9.132;2023-12-20T09:34:53;4.00;99.90
8178;DHT22;4130;48.740;9.132;2023-12-20T09:37:20;4.00;99.90
8178;DHT22;4130;48.740;9.132;2023-12-20T09:39:47;4.00;99.90
8178;DHT22;4130;48.740;9.132;2023-12-20T09:42:21;4.00;99.90
8178;DHT22;4130;48.740;9.132;2023-12-20T09:44:50;4.10;99.90
8178;DHT22;4130;48.740;9.132;2023-12-20T09:47:20;4.20;99.90
8178;DHT22;4130;48.740;9.132;2023-12-20T09:49:50;4.20;99.90
8178;DHT22;4130;48.740;9.132;2023-12-20T09:52:18;4.30;99.90
8178;DHT22;4130;48.740;9.132;2023-12-20T09:54:48;4.30;99.90
8178;DHT22;4130;48.740;9.132;2023-12-20T09:57:16;4.30;99.90
8178;DHT22;4130;48.740;9.132;2023-12-20T09:59:43;4.40;99.90
8178;DHT22;4130;48.740;9.132;2023-12-20T10:02:13;4.50;99.90
8178;DHT22;4130;48.740;9.132;2023-12-20T10:04:46;4.50;99.90
8178;DHT22;4130;48.740;9.132;2023-12-20T10:07:15;4.50;99.90
8178;DHT22;4130;48.740;9.132;2023-12-20T10:09:42;4.60;99.90
8178;DHT22;4130;48.740;9.132;2023-12-20T10:12:10;4.60;99.90
8178;DHT22;4130;48.740;9.132;2023-12-20T10:14:39;4.90;99.90
8178;DHT22;4130;48.740;9.132;2023-12-20T10:17:06;5.00;99.90
8178;DHT22;4130;48.740;9.132;2023-12-20T10:19:33;5.30;99.90
8178;DHT22;4130;48.740;9.132;2023-12-20T10:22:00;5.40;99.90
8178;DHT22;4130;48.740;9.132;2023-12-20T10:28:08;5.40;99.90
8178;DHT22;4130;48.740;9.132;2023-12-20T10:30:36;5.40;99.90
8178;DHT22;4130;48.740;9.132;2023-12-20T10:33:03;5.40;99.90
8178;DHT22;4130;48.740;9.132;2023-12-20T10:35:31;5.30;99.90
8178;DHT22;4130;48.740;9.132;2023-12-20T10:38:03;5.30;99.90
8178;DHT22;4130;48.740;9.132;2023-12-20T10:40:30;5.20;99.90
8178;DHT22;4130;48.740;9.132;2023-12-20T10:42:59;5.20;99.90
8178;DHT22;4130;48.740;9.132;2023-12-20T10:45:27;5.30;99.90
8178;DHT22;4130;48.740;9.132;2023-12-20T10:47:55;5.20;99.90
8178;DHT22;4130;48.740;9.132;2023-12-20T10:50:23;5.30;99.90
8178;DHT22;4130;48.740;9.132;2023-12-20T10:56:00;5.30;99.90
8178;DHT22;4130;48.740;9.132;2023-12-20T10:58:32;5.30;99.90
8178;DHT22;4130;48.740;9.132;2023-12-20T11:01:00;5.30;99.90
8178;DHT22;4130;48.740;9.132;2023-12-20T11:03:31;5.30;99.90
8178;DHT22;4130;48.740;9.132;2023-12-20T11:06:03;5.40;99.90
8178;DHT22;4130;48.740;9.132;2023-12-20T11:08:36;5.30;99.90
8178;DHT22;4130;48.740;9.132;2023-12-20T11:11:08;5.30;99.90
8178;DHT22;4130;48.740;9.132;2023-12-20T11:13:43;5.30;99.90
8178;DHT22;4130;48.740;9.132;2023-12-20T11:16:11;5.30;99.90
8178;DHT22;4130;48.740;9.132;2023-12-20T11:18:40;5.30;99.90
8178;DHT22;4130;48.740;9.132;2023-12-20T11:21:07;5.30;99.90
8178;DHT22;4130;48.740;9.132;2023-12-20T11:23:36;5.30;99.90
8178;DHT22;4130;48.740;9.132;2023-12-20T11:26:03;5.30;99.90
8178;DHT22;4130;48.740;9.132;2023-12-20T11:28:30;5.30;99.90
8178;DHT22;4130;48.740;9.132;2023-12-20T11:30:58;5.30;99.90
8178;DHT22;4130;48.740;9.132;2023-12-20T11:33:29;5.30;99.90
8178;DHT22;4130;48.740;9.132;2023-12-20T11:35:57;5.30;99.90
8178;DHT22;4130;48.740;9.132;2023-12-20T11:38:35;5.30;99.90
8178;DHT22;4130;48.740;9.132;2023-12-20T11:41:05;5.30;99.90
8178;DHT22;4130;48.740;9.132;2023-12-20T11:43:35;5.20;99.90
8178;DHT22;4130;48.740;9.132;2023-12-20T11:46:05;5.20;99.90
8178;DHT22;4130;48.740;9.132;2023-12-20T11:48:34;5.20;99.90
8178;DHT22;4130;48.740;9.132;2023-12-20T11:51:01;5.20;99.90
8178;DHT22;4130;48.740;9.132;2023-12-20T11:53:29;5.20;99.90
8178;DHT22;4130;48.740;9.132;2023-12-20T11:59:25;5.30;99.90
8178;DHT22;4130;48.740;9.132;2023-12-20T12:01:54;5.20;99.90
8178;DHT22;4130;48.740;9.132;2023-12-20T12:04:26;5.20;99.90
8178;DHT22;4130;48.740;9.132;2023-12-20T12:06:53;5.20;99.90
8178;DHT22;4130;48.740;9.132;2023-12-20T12:09:20;5.20;99.90
8178;DHT22;4130;48.740;9.132;2023-12-20T12:11:47;5.20;99.90
8178;DHT22;4130;48.740;9.132;2023-12-20T12:14:15;5.20;99.90
8178;DHT22;4130;48.740;9.132;2023-12-20T12:16:45;5.20;99.90
8178;DHT22;4130;48.740;9.132;2023-12-20T12:19:22;5.20;99.90
8178;DHT22;4130;48.740;9.132;2023-12-20T12:21:49;5.30;99.90
8178;DHT22;4130;48.740;9.132;2023-12-20T12:24:20;5.30;99.90
8178;DHT22;4130;48.740;9.132;2023-12-20T12:26:50;5.40;99.90
8178;DHT22;4130;48.740;9.132;2023-12-20T12:29:18;5.40;99.90
8178;DHT22;4130;48.740;9.132;2023-12-20T12:31:45;5.50;99.90
8178;DHT22;4130;48.740;9.132;2023-12-20T12:34:12;5.50;99.90
8178;DHT22;4130;48.740;9.132;2023-12-20T12:36:43;5.50;99.90
8178;DHT22;4130;48.740;9.132;2023-12-20T12:39:12;5.50;99.90
8178;DHT22;4130;48.740;9.132;2023-12-20T12:44:14;5.60;99.90
8178;DHT22;4130;48.740;9.132;2023-12-20T12:46:42;5.50;99.90
8178;DHT22;4130;48.740;9.132;2023-12-20T12:49:09;5.50;99.90
8178;DHT22;4130;48.740;9.132;2023-12-20T12:51:36;5.50;99.90
8178;DHT22;4130;48.740;9.132;2023-12-20T12:54:04;5.50;99.90
8178;DHT22;4130;48.740;9.132;2023-12-20T12:56:32;5.50;99.90
8178;DHT22;4130;48.740;9.132;2023-12-20T12:59:00;5.50;99.90
8178;DHT22;4130;48.740;9.132;2023-12-20T13:01:28;5.60;99.90
8178;DHT22;4130;48.740;9.132;2023-12-20T13:03:55;5.60;99.90
8178;DHT22;4130;48.740;9.132;2023-12-20T13:06:22;5.60;99.90
8178;DHT22;4130;48.740;9.132;2023-12-20T13:08:49;5.60;99.90
8178;DHT22;4130;48.740;9.132;2023-12-20T13:11:17;5.60;99.90
8178;DHT22;4130;48.740;9.132;2023-12-20T13:13:44;5.60;99.90
8178;DHT22;4130;48.740;9.132;2023-12-20T13:16:14;5.60;99.90
8178;DHT22;4130;48.740;9.132;2023-12-20T13:18:41;5.70;99.90
8178;DHT22;4130;48.740;9.132;2023-12-20T13:21:11;5.60;99.90
8178;DHT22;4130;48.740;9.132;2023-12-20T13:23:38;5.60;99.90
8178;DHT22;4130;48.740;9.132;2023-12-20T13:26:05;5.60;99.90
8178;DHT22;4130;48.740;9.132;2023-12-20T13:28:34;5.60;99.90
8178;DHT22;4130;48.740;9.132;2023-12-20T13:31:01;5.60;99.90
8178;DHT22;4130;48.740;9.132;2023-12-20T13:33:28;5.60;99.90
8178;DHT22;4130;48.740;9.132;2023-12-20T13:35:55;5.70;99.90
8178;DHT22;4130;48.740;9.132;2023-12-20T13:38:24;5.60;99.90
8178;DHT22;4130;48.740;9.132;2023-12-20T13:40:51;5.70;99.90
8178;DHT22;4130;48.740;9.132;2023-12-20T13:43:18;5.80;99.90
8178;DHT22;4130;48.740;9.132;2023-12-20T13:45:48;5.70;99.90
8178;DHT22;4130;48.740;9.132;2023-12-20T13:48:15;5.80;99.90
8178;DHT22;4130;48.740;9.132;2023-12-20T13:50:43;5.70;99.90
8178;DHT22;4130;48.740;9.132;2023-12-20T13:55:43;5.60;99.90
8178;DHT22;4130;48.740;9.132;2023-12-20T13:58:10;5.50;99.90
8178;DHT22;4130;48.740;9.132;2023-12-20T14:00:37;5.50;99.90
8178;DHT22;4130;48.740;9.132;2023-12-20T14:03:05;5.50;99.90
8178;DHT22;4130;48.740;9.132;2023-12-20T14:05:32;5.40;99.90
8178;DHT22;4130;48.740;9.132;2023-12-20T14:07:59;5.40;99.90
8178;DHT22;4130;48.740;9.132;2023-12-20T14:10:27;5.40;99.90
8178;DHT22;4130;48.740;9.132;2023-12-20T14:12:54;5.40;99.90
8178;DHT22;4130;48.740;9.132;2023-12-20T14:15:21;5.40;99.90
8178;DHT22;4130;48.740;9.132;2023-12-20T14:17:50;5.40;99.90
8178;DHT22;4130;48.740;9.132;2023-12-20T14:20:19;5.30;99.90
8178;DHT22;4130;48.740;9.132;2023-12-20T14:22:46;5.30;99.90
8178;DHT22;4130;48.740;9.132;2023-12-20T14:25:14;5.30;99.90
8178;DHT22;4130;48.740;9.132;2023-12-20T14:27:41;5.20;99.90
8178;DHT22;4130;48.740;9.132;2023-12-20T14:30:10;5.20;99.90
8178;DHT22;4130;48.740;9.132;2023-12-20T14:32:39;5.20;99.90
8178;DHT22;4130;48.740;9.132;2023-12-20T14:35:07;5.10;99.90
8178;DHT22;4130;48.740;9.132;2023-12-20T14:37:36;5.10;99.90
8178;DHT22;4130;48.740;9.132;2023-12-20T14:40:05;5.10;99.90
8178;DHT22;4130;48.740;9.132;2023-12-20T14:42:36;5.10;99.90
8178;DHT22;4130;48.740;9.132;2023-12-20T14:45:04;5.00;99.90
8178;DHT22;4130;48.740;9.132;2023-12-20T14:47:31;5.00;99.90
8178;DHT22;4130;48.740;9.132;2023-12-20T14:49:58;5.00;99.90
8178;DHT22;4130;48.740;9.132;2023-12-20T14:52:25;5.00;99.90
8178;DHT22;4130;48.740;9.132;2023-12-20T14:54:53;5.00;99.90
8178;DHT22;4130;48.740;9.132;2023-12-20T14:57:20;4.90;99.90
8178;DHT22;4130;48.740;9.132;2023-12-20T14:59:47;4.80;99.90
8178;DHT22;4130;48.740;9.132;2023-12-20T15:02:14;4.80;99.90
8178;DHT22;4130;48.740;9.132;2023-12-20T15:04:49;4.80;99.90
8178;DHT22;4130;48.740;9.132;2023-12-20T15:07:16;4.80;99.90
8178;DHT22;4130;48.740;9.132;2023-12-20T15:43:34;4.50;99.90
8178;DHT22;4130;48.740;9.132;2023-12-20T15:59:36;4.40;99.90
8178;DHT22;4130;48.740;9.132;2023-12-20T16:02:03;4.40;99.90
8178;DHT22;4130;48.740;9.132;2023-12-20T16:04:30;4.40;99.90
8178;DHT22;4130;48.740;9.132;2023-12-20T16:07:05;4.40;99.90
8178;DHT22;4130;48.740;9.132;2023-12-20T16:09:46;4.40;99.90
8178;DHT22;4130;48.740;9.132;2023-12-20T16:12:13;4.40;99.90
8178;DHT22;4130;48.740;9.132;2023-12-20T16:14:41;4.40;99.90
8178;DHT22;4130;48.740;9.132;2023-12-20T16:17:08;4.40;99.90
8178;DHT22;4130;48.740;9.132;2023-12-20T16:19:36;4.40;99.90
8178;DHT22;4130;48.740;9.132;2023-12-20T16:22:03;4.30;99.90
8178;DHT22;4130;48.740;9.132;2023-12-20T16:24:32;4.40;99.90
8178;DHT22;4130;48.740;9.132;2023-12-20T16:27:03;4.30;99.90
8178;DHT22;4130;48.740;9.132;2023-12-20T16:29:35;4.30;99.90
8178;DHT22;4130;48.740;9.132;2023-12-20T16:32:04;4.30;99.90
8178;DHT22;4130;48.740;9.132;2023-12-20T16:34:31;4.30;99.90
8178;DHT22;4130;48.740;9.132;2023-12-20T16:36:58;4.30;99.90
8178;DHT22;4130;48.740;9.132;2023-12-20T16:39:25;4.30;99.90
8178;DHT22;4130;48.740;9.132;2023-12-20T16:41:52;4.30;99.90
8178;DHT22;4130;48.740;9.132;2023-12-20T16:44:19;4.30;99.90
8178;DHT22;4130;48.740;9.132;2023-12-20T16:46:46;4.30;99.90
8178;DHT22;4130;48.740;9.132;2023-12-20T16:49:14;4.30;99.90
8178;DHT22;4130;48.740;9.132;2023-12-20T16:51:41;4.30;99.90
8178;DHT22;4130;48.740;9.132;2023-12-20T16:54:08;4.30;99.90
8178;DHT22;4130;48.740;9.132;2023-12-20T16:56:35;4.30;99.90
8178;DHT22;4130;48.740;9.132;2023-12-20T16:59:02;4.30;99.90
8178;DHT22;4130;48.740;9.132;2023-12-20T17:01:29;4.30;99.90
8178;DHT22;4130;48.740;9.132;2023-12-20T17:03:56;4.30;99.90
8178;DHT22;4130;48.740;9.132;2023-12-20T17:06:25;4.30;99.90
8178;DHT22;4130;48.740;9.132;2023-12-20T17:08:52;4.30;99.90
8178;DHT22;4130;48.740;9.132;2023-12-20T17:11:20;4.30;99.90
8178;DHT22;4130;48.740;9.132;2023-12-20T17:13:48;4.20;99.90
8178;DHT22;4130;48.740;9.132;2023-12-20T17:16:16;4.20;99.90
8178;DHT22;4130;48.740;9.132;2023-12-20T17:18:44;4.20;99.90
8178;DHT22;4130;48.740;9.132;2023-12-20T17:21:23;4.20;99.90
8178;DHT22;4130;48.740;9.132;2023-12-20T17:24:27;4.20;99.90
8178;DHT22;4130;48.740;9.132;2023-12-20T17:26:54;4.10;99.90
8178;DHT22;4130;48.740;9.132;2023-12-20T17:29:21;4.10;99.90